Time;durP1;ratioP1;P1;durP2;ratioP2;P2;SDS_P1;SDS_P2;PMS_P1;PMS_P2;Temp;Humidity;BMP_temperature;BMP_pressure;BME280_temperature;BME280_humidity;BME280_pressure;Samples;Min_cycle;Max_cycle;Signal;HPM_P1;HPM_P2
2023/09/08 00:02:25;;;;;;;;;;;14.60;99.90;;;;;;4902246;29;20044;-70
2023/09/08 00:04:52;;;;;;;4.85;1.00;;;14.60;99.90;;;;;;4901777;29;19927;-66
2023/09/08 00:07:20;;;;;;;1.42;1.05;;;14.60;99.90;;;;;;4907253;29;20076;-69
2023/09/08 00:09:47;;;;;;;3.05;1.20;;;14.60;99.90;;;;;;4905929;29;20045;-71
2023/09/08 00:12:14;;;;;;;1.60;0.75;;;14.60;99.90;;;;;;4904110;29;20145;-66
2023/09/08 00:14:42;;;;;;;1.88;1.30;;;14.60;99.90;;;;;;4905338;29;20097;-69
2023/09/08 00:17:09;;;;;;;2.08;0.77;;;14.60;99.90;;;;;;4903224;29;20059;-71
2023/09/08 00:19:36;;;;;;;1.92;0.98;;;14.60;99.90;;;;;;4900655;29;20059;-69
2023/09/08 00:22:05;;;;;;;4.38;1.23;;;14.70;99.90;;;;;;4905074;29;20530;-67
2023/09/08 00:24:33;;;;;;;3.88;1.33;;;14.70;99.90;;;;;;4905380;29;20075;-71
2023/09/08 00:27:01;;;;;;;3.35;1.08;;;14.70;99.90;;;;;;4903433;29;20044;-70
2023/09/08 00:29:28;;;;;;;1.17;0.95;;;14.70;99.90;;;;;;4903955;29;20056;-66
2023/09/08 00:31:55;;;;;;;2.92;0.93;;;14.70;99.90;;;;;;4907151;29;20076;-71
2023/09/08 00:34:22;;;;;;;3.75;1.73;;;14.70;99.90;;;;;;4903577;29;20455;-68
2023/09/08 00:36:49;;;;;;;3.33;1.33;;;14.70;99.90;;;;;;4893404;29;20059;-68
2023/09/08 00:39:16;;;;;;;4.47;1.05;;;14.70;99.90;;;;;;4910237;29;20395;-67
2023/09/08 00:41:43;;;;;;;1.88;1.20;;;14.70;99.90;;;;;;4908202;29;20495;-71
2023/09/08 00:44:11;;;;;;;1.90;1.63;;;14.70;99.90;;;;;;4912032;29;20044;-70
2023/09/08 00:46:39;;;;;;;3.47;1.33;;;14.70;99.90;;;;;;4889173;29;20108;-70
2023/09/08 00:49:08;;;;;;;1.50;1.00;;;14.70;99.90;;;;;;4900980;29;20063;-66
2023/09/08 00:51:37;;;;;;;2.13;1.73;;;14.70;99.90;;;;;;4907831;29;20070;-70
2023/09/08 00:54:06;;;;;;;5.00;1.67;;;14.80;99.90;;;;;;4906556;29;20048;-67
2023/09/08 00:56:34;;;;;;;3.40;1.42;;;14.80;99.90;;;;;;4901975;29;20040;-67
2023/09/08 00:59:02;;;;;;;3.75;1.10;;;14.80;99.90;;;;;;4901993;29;20040;-71
2023/09/08 01:01:31;;;;;;;3.28;1.13;;;14.80;99.90;;;;;;4906630;29;20093;-66
2023/09/08 01:03:57;;;;;;;3.13;1.02;;;14.80;99.90;;;;;;4905627;29;20048;-70
2023/09/08 01:06:25;;;;;;;2.17;1.65;;;14.80;99.90;;;;;;4886935;29;20059;-68
2023/09/08 01:08:53;;;;;;;1.77;1.67;;;14.80;99.90;;;;;;4904656;29;20048;-67
2023/09/08 01:11:21;;;;;;;2.63;1.17;;;14.80;99.90;;;;;;4903314;29;20051;-66
2023/09/08 01:13:48;;;;;;;2.72;1.25;;;14.80;99.90;;;;;;4902933;29;20066;-72
2023/09/08 01:16:15;;;;;;;4.75;1.52;;;14.80;99.90;;;;;;4907682;29;20060;-67
2023/09/08 01:18:43;;;;;;;1.92;1.70;;;14.80;99.90;;;;;;4905465;29;20573;-69
2023/09/08 01:21:20;;;;;;;2.30;1.15;;;14.80;99.90;;;;;;4889978;29;20050;-69
2023/09/08 01:23:53;;;;;;;2.15;1.40;;;14.80;99.90;;;;;;4890773;29;20406;-66
2023/09/08 01:26:23;;;;;;;2.13;1.50;;;14.90;99.90;;;;;;4904540;29;20566;-70
2023/09/08 01:28:52;;;;;;;3.30;1.48;;;14.90;99.90;;;;;;4905432;29;20499;-67
2023/09/08 01:31:19;;;;;;;4.13;2.40;;;14.90;99.90;;;;;;4893073;29;20551;-67
2023/09/08 01:33:46;;;;;;;3.30;1.75;;;14.90;99.90;;;;;;4891069;29;20068;-70
2023/09/08 01:36:14;;;;;;;4.35;1.73;;;14.90;99.90;;;;;;4904805;29;20052;-67
2023/09/08 01:38:41;;;;;;;3.50;1.55;;;14.90;99.90;;;;;;4910491;29;20471;-69
2023/09/08 01:41:09;;;;;;;4.32;1.67;;;14.90;99.90;;;;;;4908097;29;20076;-68
2023/09/08 01:43:36;;;;;;;7.13;1.98;;;14.90;99.90;;;;;;4910342;29;20451;-68
2023/09/08 01:46:03;;;;;;;4.32;1.80;;;14.90;99.90;;;;;;4886223;29;20063;-70
2023/09/08 01:48:30;;;;;;;9.10;2.30;;;14.90;99.90;;;;;;4902726;29;20414;-68
2023/09/08 01:50:57;;;;;;;4.45;1.48;;;14.90;99.90;;;;;;4888703;29;20064;-69
2023/09/08 01:53:24;;;;;;;2.67;1.42;;;14.90;99.90;;;;;;4905024;29;20483;-68
2023/09/08 01:55:51;;;;;;;6.22;2.03;;;14.80;99.90;;;;;;4903861;29;20120;-68
2023/09/08 01:58:18;;;;;;;4.63;1.92;;;14.80;99.90;;;;;;4892564;29;20055;-66
2023/09/08 02:00:49;;;;;;;5.53;1.65;;;14.80;99.90;;;;;;4907389;29;20052;-66
2023/09/08 02:03:17;;;;;;;1.38;1.27;;;14.80;99.90;;;;;;4908709;29;20752;-66
2023/09/08 02:05:45;;;;;;;2.38;1.30;;;14.80;99.90;;;;;;4906049;29;20043;-70
2023/09/08 02:08:13;;;;;;;5.80;1.40;;;14.80;99.90;;;;;;4892441;29;20056;-67
2023/09/08 02:10:40;;;;;;;3.75;1.92;;;14.80;99.90;;;;;;4891691;29;20513;-71
2023/09/08 02:13:07;;;;;;;2.97;1.80;;;14.90;99.90;;;;;;4893211;29;20057;-67
2023/09/08 02:15:36;;;;;;;3.25;1.50;;;14.90;99.90;;;;;;4902934;29;20060;-66
2023/09/08 02:18:04;;;;;;;4.45;1.48;;;14.90;99.90;;;;;;4905011;29;20478;-69
2023/09/08 02:20:31;;;;;;;4.35;1.42;;;14.90;99.90;;;;;;4902368;29;20371;-69
2023/09/08 02:23:03;;;;;;;3.80;1.85;;;14.90;99.90;;;;;;4905282;29;20518;-68
2023/09/08 02:25:31;;;;;;;2.95;1.55;;;14.90;99.90;;;;;;4886343;29;20050;-69
2023/09/08 02:27:58;;;;;;;3.83;1.60;;;14.90;99.90;;;;;;4889253;29;20515;-67
2023/09/08 02:30:25;;;;;;;3.60;1.60;;;14.90;99.90;;;;;;4883799;29;20056;-71
2023/09/08 02:32:54;;;;;;;1.67;1.52;;;14.90;99.90;;;;;;4900422;29;20705;-67
2023/09/08 02:35:23;;;;;;;3.67;1.45;;;15.00;99.90;;;;;;4905292;29;20052;-67
2023/09/08 02:37:51;;;;;;;1.97;1.17;;;14.90;99.90;;;;;;4896498;29;20063;-70
2023/09/08 02:40:20;;;;;;;4.75;1.48;;;14.90;99.90;;;;;;4905511;29;20188;-69
2023/09/08 02:42:48;;;;;;;2.72;1.77;;;15.00;99.90;;;;;;4885800;29;20108;-72
2023/09/08 02:45:15;;;;;;;2.17;1.05;;;15.00;99.90;;;;;;4903526;29;20410;-67
2023/09/08 02:47:42;;;;;;;3.38;1.45;;;14.90;99.90;;;;;;4885563;29;20080;-71
2023/09/08 02:50:09;;;;;;;3.13;1.77;;;14.90;99.90;;;;;;4904722;29;20056;-67
2023/09/08 02:52:36;;;;;;;2.88;1.48;;;14.80;99.90;;;;;;4905515;29;20067;-73
2023/09/08 02:55:03;;;;;;;3.05;1.85;;;14.80;99.90;;;;;;4907790;29;20116;-69
2023/09/08 02:57:30;;;;;;;1.88;1.35;;;14.80;99.90;;;;;;4907155;29;20107;-66
2023/09/08 02:59:57;;;;;;;2.25;1.58;;;14.80;99.90;;;;;;4889441;29;20053;-75
2023/09/08 03:02:25;;;;;;;2.67;1.67;;;14.80;99.90;;;;;;4905072;29;20080;-69
2023/09/08 03:04:52;;;;;;;4.22;1.52;;;14.80;99.90;;;;;;4884655;29;20059;-67
2023/09/08 03:07:20;;;;;;;2.70;1.45;;;14.80;99.90;;;;;;4904081;29;20139;-69
2023/09/08 03:09:47;;;;;;;3.30;1.48;;;14.70;99.90;;;;;;4898752;29;20633;-67
2023/09/08 03:12:14;;;;;;;6.18;1.92;;;14.70;99.90;;;;;;4892100;29;20060;-68
2023/09/08 03:14:41;;;;;;;2.75;1.45;;;14.70;99.90;;;;;;4901691;29;20108;-71
2023/09/08 03:17:08;;;;;;;3.75;1.55;;;14.70;99.90;;;;;;4892607;29;20062;-66
2023/09/08 03:19:35;;;;;;;2.42;1.55;;;14.60;99.90;;;;;;4904020;29;20048;-66
2023/09/08 03:22:02;;;;;;;2.90;1.85;;;14.60;99.90;;;;;;4885876;29;20056;-72
2023/09/08 03:24:30;;;;;;;2.70;1.38;;;14.60;99.90;;;;;;4881688;29;20563;-68
2023/09/08 03:26:58;;;;;;;2.53;1.77;;;14.50;99.90;;;;;;4906359;29;20052;-67
2023/09/08 03:29:25;;;;;;;5.15;1.65;;;14.60;99.90;;;;;;4902156;29;20100;-73
2023/09/08 03:31:51;;;;;;;5.25;1.75;;;14.50;99.90;;;;;;4903156;29;20397;-69
2023/09/08 03:34:20;;;;;;;3.20;1.65;;;14.50;99.90;;;;;;4885421;29;20068;-67
2023/09/08 03:36:49;;;;;;;3.28;1.63;;;14.50;99.90;;;;;;4900176;29;20064;-68
2023/09/08 03:39:16;;;;;;;2.50;1.30;;;14.40;99.90;;;;;;4900379;29;20052;-69
2023/09/08 03:41:43;;;;;;;10.65;1.92;;;14.40;99.90;;;;;;4902102;29;20053;-67
2023/09/08 03:44:10;;;;;;;8.98;3.15;;;14.40;99.90;;;;;;4885868;29;20418;-69
2023/09/08 03:46:37;;;;;;;3.35;1.35;;;14.30;99.90;;;;;;4901167;29;20066;-69
2023/09/08 03:49:04;;;;;;;8.50;2.60;;;14.30;99.90;;;;;;4888382;29;20051;-72
2023/09/08 03:51:31;;;;;;;2.95;1.60;;;14.30;99.90;;;;;;4886018;29;20395;-69
2023/09/08 03:53:58;;;;;;;5.47;1.98;;;14.30;99.90;;;;;;4892054;29;20143;-69
2023/09/08 03:56:25;;;;;;;4.25;2.80;;;14.30;99.90;;;;;;4902536;29;20379;-70
2023/09/08 03:58:52;;;;;;;4.43;2.13;;;14.30;99.90;;;;;;4908978;29;20043;-70
2023/09/08 04:01:19;;;;;;;4.18;1.90;;;14.40;99.90;;;;;;4896253;29;20048;-68
2023/09/08 04:03:46;;;;;;;4.18;3.35;;;14.30;99.90;;;;;;4903386;29;20056;-69
2023/09/08 04:06:13;;;;;;;6.65;2.58;;;14.30;99.90;;;;;;4897487;29;20134;-67
2023/09/08 04:08:39;;;;;;;4.45;1.70;;;14.30;99.90;;;;;;4885763;29;20063;-69
2023/09/08 04:11:06;;;;;;;2.20;1.98;;;14.30;99.90;;;;;;4900863;29;20048;-67
2023/09/08 04:13:33;;;;;;;3.13;2.20;;;14.30;99.90;;;;;;4904877;29;20048;-66
2023/09/08 04:16:01;;;;;;;4.57;2.58;;;14.30;99.90;;;;;;4880702;29;20076;-67
2023/09/08 04:18:28;;;;;;;4.25;1.77;;;14.20;99.90;;;;;;4904054;29;20406;-68
2023/09/08 04:20:55;;;;;;;2.15;1.88;;;14.20;99.90;;;;;;4902126;29;20059;-70
2023/09/08 04:23:22;;;;;;;3.25;2.15;;;14.20;99.90;;;;;;4888703;29;20048;-67
2023/09/08 04:25:49;;;;;;;6.93;3.33;;;14.30;99.90;;;;;;4901267;29;20669;-69
2023/09/08 04:28:16;;;;;;;2.05;1.85;;;14.30;99.90;;;;;;4905285;29;20054;-66
2023/09/08 04:30:43;;;;;;;2.95;2.50;;;14.30;99.90;;;;;;4889331;29;20406;-70
2023/09/08 04:33:10;;;;;;;4.25;2.95;;;14.40;99.90;;;;;;4907527;29;20056;-69
2023/09/08 04:35:37;;;;;;;4.25;2.75;;;14.40;99.90;;;;;;4899320;29;20044;-69
2023/09/08 04:38:05;;;;;;;3.92;2.47;;;14.40;99.90;;;;;;4905217;29;20052;-68
2023/09/08 04:40:32;;;;;;;6.43;3.33;;;14.40;99.90;;;;;;4889691;29;20174;-66
2023/09/08 04:42:59;;;;;;;4.07;3.38;;;14.40;99.90;;;;;;4887545;29;20052;-68
2023/09/08 04:45:26;;;;;;;4.18;2.70;;;14.50;99.90;;;;;;4887808;29;20123;-66
2023/09/08 04:47:53;;;;;;;4.47;3.20;;;14.60;99.90;;;;;;4887454;29;20142;-67
2023/09/08 04:50:20;;;;;;;5.97;2.70;;;14.60;99.90;;;;;;4899440;29;20445;-74
2023/09/08 04:52:47;;;;;;;5.13;3.42;;;14.60;99.90;;;;;;4890651;29;20262;-67
2023/09/08 04:55:16;;;;;;;4.43;2.83;;;14.60;99.90;;;;;;4901760;29;20063;-70
2023/09/08 04:57:44;;;;;;;3.45;2.53;;;14.60;99.90;;;;;;4900295;29;20052;-69
2023/09/08 05:00:11;;;;;;;3.42;3.13;;;14.70;99.90;;;;;;4884909;29;20095;-67
2023/09/08 05:02:38;;;;;;;5.10;2.85;;;14.70;99.90;;;;;;4889335;29;20060;-70
2023/09/08 05:05:06;;;;;;;5.15;3.47;;;14.70;99.90;;;;;;4900329;29;20044;-74
2023/09/08 05:07:33;;;;;;;3.72;3.05;;;14.70;99.90;;;;;;4882187;29;20052;-67
2023/09/08 05:10:00;;;;;;;7.30;3.85;;;14.80;99.90;;;;;;4875413;29;20059;-66
2023/09/08 05:12:30;;;;;;;3.00;2.75;;;14.80;99.90;;;;;;4898148;29;20131;-69
2023/09/08 05:15:00;;;;;;;5.45;3.55;;;14.80;99.90;;;;;;4898236;29;20062;-67
2023/09/08 05:17:27;;;;;;;6.68;3.50;;;14.90;99.90;;;;;;4905174;29;20170;-66
2023/09/08 05:19:55;;;;;;;4.20;3.35;;;14.90;99.90;;;;;;4901916;29;20063;-66
2023/09/08 05:22:22;;;;;;;8.27;4.25;;;15.00;99.90;;;;;;4906630;29;20060;-67
2023/09/08 05:24:53;;;;;;;4.80;3.25;;;15.10;99.90;;;;;;4906330;29;20503;-67
2023/09/08 05:27:19;;;;;;;4.40;3.15;;;15.20;99.90;;;;;;4891419;29;20047;-67
2023/09/08 05:29:46;;;;;;;7.72;3.50;;;15.20;99.90;;;;;;4909149;29;20372;-67
2023/09/08 05:32:13;;;;;;;5.43;4.68;;;15.30;99.90;;;;;;4905472;29;20080;-66
2023/09/08 05:34:40;;;;;;;6.30;3.78;;;15.30;99.90;;;;;;4909994;29;20423;-70
2023/09/08 05:37:08;;;;;;;7.60;4.30;;;15.40;99.90;;;;;;4886031;29;20176;-66
2023/09/08 05:39:35;;;;;;;7.75;3.72;;;15.40;99.90;;;;;;4887300;29;20167;-66
2023/09/08 05:42:02;;;;;;;6.93;3.60;;;15.50;99.90;;;;;;4907210;29;20064;-71
2023/09/08 05:44:29;;;;;;;7.65;4.63;;;15.50;99.90;;;;;;4889830;29;20466;-66
2023/09/08 05:46:57;;;;;;;5.13;4.15;;;15.60;99.90;;;;;;4896405;29;20151;-70
2023/09/08 05:49:25;;;;;;;6.07;3.10;;;15.60;99.90;;;;;;4889052;29;20052;-71
2023/09/08 05:51:52;;;;;;;4.18;3.17;;;15.70;99.90;;;;;;4903025;29;20468;-72
2023/09/08 05:54:19;;;;;;;5.80;4.10;;;15.70;99.90;;;;;;4902939;29;20074;-68
2023/09/08 05:56:46;;;;;;;5.40;4.75;;;15.80;99.90;;;;;;4900285;29;20633;-70
2023/09/08 05:59:13;;;;;;;5.38;3.80;;;15.90;99.90;;;;;;4908349;29;20062;-67
2023/09/08 06:01:41;;;;;;;6.47;4.00;;;15.90;99.90;;;;;;4903591;29;20465;-67
2023/09/08 06:04:09;;;;;;;5.85;3.05;;;16.00;99.90;;;;;;4909328;29;20135;-69
2023/09/08 06:06:38;;;;;;;6.78;3.63;;;16.00;99.90;;;;;;4894479;29;20056;-67
2023/09/08 06:09:07;;;;;;;6.15;3.30;;;16.00;99.90;;;;;;4904521;29;20063;-68
2023/09/08 06:11:35;;;;;;;5.45;3.72;;;16.10;99.90;;;;;;4892544;29;20350;-69
2023/09/08 06:14:03;;;;;;;6.25;3.10;;;16.10;99.90;;;;;;4901586;29;20044;-67
2023/09/08 06:16:35;;;;;;;5.70;2.60;;;16.20;99.90;;;;;;4893792;29;20463;-67
2023/09/08 06:19:03;;;;;;;7.72;3.25;;;16.30;99.90;;;;;;4887903;29;20058;-67
2023/09/08 06:21:30;;;;;;;5.35;2.95;;;16.30;99.90;;;;;;4902677;29;20095;-72
2023/09/08 06:23:57;;;;;;;5.38;3.47;;;16.30;99.90;;;;;;4904901;29;20055;-69
2023/09/08 06:26:24;;;;;;;6.47;3.35;;;16.40;99.90;;;;;;4899192;29;20057;-73
2023/09/08 06:28:52;;;;;;;4.10;2.55;;;16.50;99.90;;;;;;4877839;29;20506;-67
2023/09/08 06:31:19;;;;;;;3.47;3.08;;;16.50;99.90;;;;;;4889311;29;20044;-71
2023/09/08 06:33:47;;;;;;;3.90;2.88;;;16.60;99.90;;;;;;4889363;29;20063;-67
2023/09/08 06:36:14;;;;;;;4.38;3.38;;;16.60;99.90;;;;;;4889939;29;20063;-67
2023/09/08 06:38:41;;;;;;;5.63;3.05;;;16.70;99.90;;;;;;4903817;29;20063;-68
2023/09/08 06:41:13;;;;;;;8.35;3.30;;;16.70;99.90;;;;;;4900751;29;20139;-69
2023/09/08 06:43:42;;;;;;;4.72;3.47;;;16.80;99.90;;;;;;4900065;29;20051;-67
2023/09/08 06:46:14;;;;;;;6.00;3.15;;;16.80;99.90;;;;;;4881620;29;20083;-68
2023/09/08 06:48:41;;;;;;;4.13;2.50;;;16.80;99.90;;;;;;4888123;29;20055;-69
2023/09/08 06:51:08;;;;;;;6.10;2.92;;;16.90;99.90;;;;;;4899778;29;20060;-69
2023/09/08 06:53:38;;;;;;;4.28;2.65;;;16.90;99.90;;;;;;4887456;29;20062;-65
2023/09/08 06:56:05;;;;;;;5.68;2.90;;;16.90;99.90;;;;;;4902936;29;20067;-66
2023/09/08 06:58:32;;;;;;;3.53;3.05;;;17.00;99.90;;;;;;4892039;29;20138;-66
2023/09/08 07:01:00;;;;;;;3.80;2.65;;;17.00;99.90;;;;;;4898453;29;20056;-64
2023/09/08 07:03:27;;;;;;;5.15;2.83;;;17.00;99.90;;;;;;4885058;29;20048;-67
2023/09/08 07:05:56;;;;;;;5.60;3.05;;;17.00;99.90;;;;;;4902896;29;20417;-68
2023/09/08 07:08:23;;;;;;;4.72;3.20;;;17.00;99.90;;;;;;4887245;29;20048;-64
2023/09/08 07:10:53;;;;;;;4.70;3.53;;;17.00;99.90;;;;;;4886679;29;20061;-68
2023/09/08 07:13:20;;;;;;;5.07;3.85;;;17.10;99.90;;;;;;4897375;29;20053;-65
2023/09/08 07:15:47;;;;;;;6.07;3.30;;;17.10;99.90;;;;;;4890201;29;20064;-66
2023/09/08 07:18:14;;;;;;;2.92;2.72;;;17.10;99.90;;;;;;4887086;29;20075;-67
2023/09/08 07:20:47;;;;;;;6.78;3.75;;;17.10;99.90;;;;;;4900433;29;20051;-64
2023/09/08 07:23:18;;;;;;;6.72;3.78;;;17.10;99.90;;;;;;4886222;29;20049;-65
2023/09/08 07:25:49;;;;;;;5.05;3.75;;;17.20;99.90;;;;;;4893439;29;20078;-70
2023/09/08 07:28:19;;;;;;;3.33;2.95;;;17.20;99.90;;;;;;4899450;29;20052;-67
2023/09/08 07:30:49;;;;;;;;;;;17.20;99.90;;;;;;4900626;29;20053;-66
2023/09/08 07:33:16;;;;;;;6.30;3.50;;;17.20;99.90;;;;;;4901045;29;19932;-65
2023/09/08 07:35:43;;;;;;;8.40;3.42;;;17.30;99.90;;;;;;4904989;29;20130;-64
2023/09/08 07:38:10;;;;;;;6.07;3.90;;;17.30;99.90;;;;;;4908045;29;20052;-66
2023/09/08 07:40:37;;;;;;;3.65;2.92;;;17.30;99.90;;;;;;4885399;29;20052;-66
2023/09/08 07:43:05;;;;;;;7.13;4.25;;;17.40;99.90;;;;;;4902007;29;20076;-64
2023/09/08 07:45:32;;;;;;;5.35;3.78;;;17.40;99.90;;;;;;4900131;29;20056;-65
2023/09/08 07:47:59;;;;;;;6.07;4.03;;;17.50;99.90;;;;;;4904835;29;20055;-64
2023/09/08 07:50:28;;;;;;;5.53;3.70;;;17.50;99.90;;;;;;4896088;29;20057;-64
2023/09/08 07:52:57;;;;;;;3.03;2.70;;;17.50;99.90;;;;;;4901606;29;20116;-65
2023/09/08 07:55:27;;;;;;;3.72;2.63;;;17.50;99.90;;;;;;4905002;29;20134;-66
2023/09/08 07:57:55;;;;;;;3.85;3.03;;;17.50;99.90;;;;;;4906375;29;20129;-65
2023/09/08 08:00:22;;;;;;;3.63;3.28;;;17.50;99.90;;;;;;4903849;29;20506;-67
2023/09/08 08:02:50;;;;;;;4.28;3.70;;;17.60;99.90;;;;;;4905804;29;20407;-66
2023/09/08 08:05:17;;;;;;;3.80;3.30;;;17.60;99.90;;;;;;4882898;29;20472;-64
2023/09/08 08:07:44;;;;;;;5.20;3.58;;;17.60;99.90;;;;;;4905950;29;20567;-68
2023/09/08 08:10:12;;;;;;;4.50;3.20;;;17.70;99.90;;;;;;4903688;29;20076;-68
2023/09/08 08:12:40;;;;;;;4.07;3.63;;;17.80;99.90;;;;;;4903054;29;20148;-69
2023/09/08 08:15:12;;;;;;;4.18;3.78;;;17.80;99.90;;;;;;4905642;29;20103;-72
2023/09/08 08:17:40;;;;;;;4.70;3.55;;;17.90;99.90;;;;;;4903783;29;20119;-71
2023/09/08 08:20:09;;;;;;;5.47;3.67;;;17.90;99.90;;;;;;4903479;29;20561;-65
2023/09/08 08:22:37;;;;;;;4.25;3.10;;;17.90;99.90;;;;;;4901860;29;20044;-66
2023/09/08 08:25:05;;;;;;;3.97;3.58;;;18.00;99.90;;;;;;4906340;29;20040;-66
2023/09/08 08:27:32;;;;;;;6.22;4.20;;;18.00;99.90;;;;;;4905042;29;20051;-69
2023/09/08 08:30:00;;;;;;;4.68;3.17;;;18.10;99.90;;;;;;4903902;29;20100;-64
2023/09/08 08:32:28;;;;;;;4.43;3.70;;;18.10;99.90;;;;;;4903084;29;20044;-67
2023/09/08 08:34:56;;;;;;;4.30;3.85;;;18.10;99.90;;;;;;4906206;29;20127;-65
2023/09/08 08:37:23;;;;;;;3.67;3.38;;;18.10;99.90;;;;;;4901167;29;20040;-65
2023/09/08 08:39:50;;;;;;;5.68;4.32;;;18.10;99.90;;;;;;4906435;29;20100;-65
2023/09/08 08:42:17;;;;;;;4.93;3.40;;;18.10;99.90;;;;;;4902032;29;20464;-67
2023/09/08 08:44:45;;;;;;;4.03;3.72;;;18.10;99.90;;;;;;4907587;29;20048;-64
2023/09/08 08:47:15;;;;;;;7.18;5.18;;;18.20;99.90;;;;;;4905510;29;20048;-65
2023/09/08 08:49:48;;;;;;;8.88;3.85;;;18.10;99.90;;;;;;4901085;29;20062;-65
2023/09/08 08:52:16;;;;;;;4.80;4.28;;;18.20;99.90;;;;;;4907190;29;20070;-67
2023/09/08 08:54:45;;;;;;;5.32;4.28;;;18.20;99.90;;;;;;4904778;29;20482;-71
2023/09/08 08:57:13;;;;;;;4.80;3.70;;;18.20;99.90;;;;;;4911379;29;20052;-65
2023/09/08 08:59:41;;;;;;;5.22;4.57;;;18.30;99.90;;;;;;4909942;29;20052;-65
2023/09/08 09:02:10;;;;;;;4.30;3.88;;;18.30;99.90;;;;;;4908603;29;20049;-66
2023/09/08 09:04:38;;;;;;;5.13;3.67;;;18.30;99.90;;;;;;4904195;29;20079;-68
2023/09/08 09:07:08;;;;;;;4.65;3.42;;;18.30;99.90;;;;;;4907852;29;20330;-65
2023/09/08 09:09:35;;;;;;;3.85;3.50;;;18.30;99.90;;;;;;4909221;29;20135;-65
2023/09/08 09:12:02;;;;;;;4.60;3.65;;;18.30;99.90;;;;;;4904727;29;20075;-67
2023/09/08 09:14:34;;;;;;;5.25;3.03;;;18.40;99.90;;;;;;4907159;29;20052;-70
2023/09/08 09:17:04;;;;;;;3.83;3.53;;;18.50;99.90;;;;;;4907922;29;20068;-68
2023/09/08 09:19:31;;;;;;;5.97;3.35;;;18.50;99.90;;;;;;4909898;29;20228;-67
2023/09/08 09:21:59;;;;;;;6.25;4.03;;;18.50;99.90;;;;;;4908084;29;20040;-64
2023/09/08 09:24:40;;;;;;;5.95;4.05;;;18.50;99.90;;;;;;4909113;29;20558;-65
2023/09/08 09:27:08;;;;;;;4.82;3.33;;;18.60;99.90;;;;;;4906628;29;20140;-66
2023/09/08 09:29:47;;;;;;;6.22;4.20;;;18.60;99.90;;;;;;4908401;29;20347;-65
2023/09/08 09:32:14;;;;;;;7.18;4.00;;;18.70;99.90;;;;;;4907773;29;20040;-65
2023/09/08 09:34:53;;;;;;;4.38;3.90;;;18.60;99.90;;;;;;4907619;29;20495;-68
2023/09/08 09:37:20;;;;;;;4.35;3.40;;;18.70;99.90;;;;;;4906567;29;20556;-66
2023/09/08 09:39:52;;;;;;;5.38;4.50;;;18.70;99.90;;;;;;4905696;29;20036;-65
2023/09/08 09:42:23;;;;;;;5.60;4.00;;;18.80;99.90;;;;;;4904589;29;20048;-65
2023/09/08 09:44:51;;;;;;;6.07;3.95;;;18.80;99.90;;;;;;4905830;29;20624;-66
2023/09/08 09:47:19;;;;;;;12.82;4.82;;;18.80;99.90;;;;;;4905008;29;20452;-65
2023/09/08 09:49:48;;;;;;;7.43;4.40;;;18.80;99.90;;;;;;4907836;29;20080;-65
2023/09/08 09:52:22;;;;;;;5.32;4.18;;;18.90;99.90;;;;;;4910218;29;20482;-68
2023/09/08 09:54:53;;;;;;;5.10;4.70;;;18.90;99.90;;;;;;4903413;29;20048;-67
2023/09/08 09:57:21;;;;;;;5.40;3.42;;;18.90;99.90;;;;;;4906963;29;20054;-67
2023/09/08 09:59:50;;;;;;;4.03;3.42;;;18.90;99.90;;;;;;4906705;29;20051;-67
2023/09/08 10:02:21;;;;;;;5.80;3.58;;;18.90;99.90;;;;;;4900967;29;20654;-75
2023/09/08 10:04:49;;;;;;;4.68;3.97;;;18.90;99.90;;;;;;4906924;29;20052;-67
2023/09/08 10:07:17;;;;;;;3.35;2.58;;;18.80;99.90;;;;;;4904584;29;20081;-71
2023/09/08 10:09:46;;;;;;;4.22;3.50;;;18.90;99.90;;;;;;4909941;29;20740;-74
2023/09/08 10:12:15;;;;;;;6.22;3.70;;;18.90;99.90;;;;;;4907098;29;20052;-67
2023/09/08 10:14:43;;;;;;;3.90;3.58;;;18.90;99.90;;;;;;4904490;29;20063;-69
2023/09/08 10:17:18;;;;;;;4.07;3.22;;;19.00;99.90;;;;;;4909402;29;20060;-68
2023/09/08 10:19:51;;;;;;;6.38;3.30;;;19.10;99.90;;;;;;4904146;29;20052;-70
2023/09/08 10:22:23;;;;;;;5.07;4.57;;;19.00;99.90;;;;;;4908171;29;20036;-68
2023/09/08 10:24:53;;;;;;;4.95;4.57;;;18.90;99.90;;;;;;4905201;29;20503;-71
2023/09/08 10:27:23;;;;;;;3.95;3.55;;;19.00;99.90;;;;;;4906182;29;20056;-69
2023/09/08 10:29:51;;;;;;;4.57;3.75;;;19.00;99.90;;;;;;4901914;29;20053;-70
2023/09/08 10:32:20;;;;;;;3.70;3.33;;;19.00;99.90;;;;;;4905744;29;20068;-70
2023/09/08 10:34:48;;;;;;;6.43;4.35;;;19.00;99.90;;;;;;4902597;29;20051;-67
2023/09/08 10:37:24;;;;;;;5.18;4.63;;;19.00;99.90;;;;;;4908804;29;20051;-68
2023/09/08 10:39:52;;;;;;;4.35;3.25;;;19.00;99.90;;;;;;4905782;29;20052;-69
2023/09/08 10:42:23;;;;;;;5.03;3.80;;;19.10;99.90;;;;;;4906372;29;20044;-67
2023/09/08 10:44:57;;;;;;;5.28;3.70;;;19.10;99.90;;;;;;4907489;29;20051;-68
2023/09/08 10:47:54;;;;;;;5.07;3.97;;;19.20;99.90;;;;;;4905459;29;20040;-68
2023/09/08 10:50:31;;;;;;;6.00;3.97;;;19.30;99.90;;;;;;4902748;29;20064;-67
2023/09/08 10:53:06;;;;;;;5.07;2.88;;;19.30;99.90;;;;;;4906615;29;20035;-68
2023/09/08 10:55:42;;;;;;;4.97;3.58;;;19.30;99.90;;;;;;4905854;29;20052;-74
2023/09/08 10:58:10;;;;;;;4.38;3.38;;;19.30;99.90;;;;;;4905957;29;20478;-70
2023/09/08 11:00:51;;;;;;;5.20;3.58;;;19.30;99.90;;;;;;4904951;29;20056;-69
2023/09/08 11:03:49;;;;;;;8.23;3.40;;;19.40;99.90;;;;;;4904185;29;20625;-68
2023/09/08 11:06:19;;;;;;;7.50;4.03;;;19.40;99.90;;;;;;4903771;29;20131;-72
2023/09/08 11:08:47;;;;;;;6.32;3.28;;;19.50;99.90;;;;;;4907218;29;20329;-67
2023/09/08 11:11:16;;;;;;;7.88;4.13;;;19.50;99.90;;;;;;4906327;29;20080;-72
2023/09/08 11:13:46;;;;;;;4.20;3.80;;;19.60;99.90;;;;;;4906154;29;20107;-68
2023/09/08 11:16:15;;;;;;;5.45;4.35;;;19.80;99.90;;;;;;4897183;29;20055;-68
2023/09/08 11:18:43;;;;;;;3.67;3.35;;;19.80;99.90;;;;;;4902445;29;20052;-70
2023/09/08 11:21:10;;;;;;;4.18;2.90;;;19.70;99.90;;;;;;4905030;29;20048;-71
2023/09/08 11:23:38;;;;;;;4.80;3.88;;;19.70;99.90;;;;;;4904276;29;20044;-68
2023/09/08 11:26:06;;;;;;;3.95;3.38;;;19.60;99.90;;;;;;4906802;29;20487;-68
2023/09/08 11:28:33;;;;;;;4.38;3.28;;;19.70;99.90;;;;;;4907597;29;20123;-70
2023/09/08 11:31:03;;;;;;;4.07;3.70;;;19.70;99.90;;;;;;4905224;29;20429;-69
2023/09/08 11:33:34;;;;;;;6.07;3.97;;;19.70;99.90;;;;;;4909995;29;20048;-68
2023/09/08 11:36:01;;;;;;;7.93;3.47;;;19.60;99.90;;;;;;4905976;29;20044;-68
2023/09/08 11:38:29;;;;;;;4.40;3.92;;;19.60;99.90;;;;;;4906853;29;20051;-67
2023/09/08 11:40:58;;;;;;;5.35;4.35;;;19.60;99.90;;;;;;4907121;29;20546;-67
2023/09/08 11:43:27;;;;;;;5.82;3.88;;;19.60;99.90;;;;;;4907672;29;20158;-69
2023/09/08 11:45:55;;;;;;;4.03;3.72;;;19.60;99.90;;;;;;4905154;29;20048;-67
2023/09/08 11:48:24;;;;;;;5.18;4.63;;;19.70;99.90;;;;;;4900589;29;20045;-71
2023/09/08 11:50:54;;;;;;;5.97;5.35;;;19.80;99.90;;;;;;4900836;29;20065;-69
2023/09/08 11:53:22;;;;;;;;;;;19.80;99.90;;;;;;4903925;29;20052;-72
2023/09/08 11:55:49;;;;;;;6.93;5.13;;;19.70;99.90;;;;;;4903654;29;19929;-70
2023/09/08 11:58:18;;;;;;;4.15;3.65;;;19.70;99.90;;;;;;4904789;29;20680;-68
2023/09/08 12:00:47;;;;;;;4.18;3.78;;;19.80;99.90;;;;;;4903077;29;20044;-67
2023/09/08 12:03:16;;;;;;;10.15;6.88;;;19.80;99.90;;;;;;4901508;29;20563;-71
2023/09/08 12:05:52;;;;;;;6.38;4.32;;;19.90;99.90;;;;;;4903399;29;20087;-69
2023/09/08 12:08:19;;;;;;;9.80;3.88;;;20.00;99.90;;;;;;4904105;29;20056;-72
2023/09/08 12:10:46;;;;;;;3.70;3.35;;;20.00;99.90;;;;;;4904865;29;20063;-67
2023/09/08 12:13:21;;;;;;;4.25;3.80;;;20.10;99.90;;;;;;4897508;29;20041;-71
2023/09/08 12:15:48;;;;;;;7.22;3.65;;;20.10;99.90;;;;;;4900090;29;20060;-73
2023/09/08 12:18:15;;;;;;;16.10;4.38;;;20.20;99.90;;;;;;4902529;29;20037;-67
2023/09/08 12:20:43;;;;;;;4.90;3.47;;;20.20;99.90;;;;;;4902893;29;20048;-67
2023/09/08 12:23:21;;;;;;;3.50;3.20;;;20.20;99.90;;;;;;4901618;29;20048;-70
2023/09/08 12:25:50;;;;;;;3.78;3.47;;;20.10;99.90;;;;;;4899138;29;20132;-73
2023/09/08 12:28:21;;;;;;;3.90;3.50;;;20.20;99.90;;;;;;4908332;29;20060;-70
2023/09/08 12:30:52;;;;;;;3.42;3.13;;;20.20;99.90;;;;;;4908255;29;20487;-67
2023/09/08 12:33:19;;;;;;;5.20;3.13;;;20.40;99.90;;;;;;4907248;29;20190;-73
2023/09/08 12:35:50;;;;;;;3.67;2.88;;;20.40;99.90;;;;;;4905519;29;20066;-74
2023/09/08 12:38:18;;;;;;;;;;;20.40;99.90;;;;;;4892669;29;20131;-67
2023/09/08 12:40:45;;;;;;;5.68;3.50;;;20.40;99.90;;;;;;4910375;29;20384;-68
2023/09/08 12:43:11;;;;;;;5.65;3.00;;;20.40;99.90;;;;;;4910668;29;20040;-70
2023/09/08 12:45:54;;;;;;;5.50;3.25;;;20.30;99.90;;;;;;4910251;29;20059;-69
2023/09/08 12:48:22;;;;;;;2.92;2.60;;;20.30;99.90;;;;;;4906966;29;20084;-69
2023/09/08 12:50:49;;;;;;;5.82;4.38;;;20.40;99.90;;;;;;4911274;29;20412;-68
2023/09/08 12:53:17;;;;;;;4.65;2.90;;;20.40;99.90;;;;;;4906011;29;20096;-69
2023/09/08 12:55:45;;;;;;;5.00;3.40;;;20.40;99.90;;;;;;4902602;29;20523;-71